createdAt,value
2022-08-22T00:00:31.146Z,981.03
2022-08-22T00:01:31.139Z,981.04
2022-08-22T00:02:31.200Z,981.05
2022-08-22T00:02:44.823Z,980.42
2022-08-22T00:02:54.176Z,981.10
2022-08-22T00:02:56.790Z,981.18
2022-08-22T00:03:00.025Z,980.74
2022-08-22T00:03:09.767Z,980.63
2022-08-22T00:03:12.559Z,981.12
2022-08-22T00:03:31.222Z,981.04
2022-08-22T00:04:33.969Z,981.03
2022-08-22T00:05:31.091Z,981.03
2022-08-22T00:06:31.151Z,981.03
2022-08-22T00:07:31.074Z,981.16
2022-08-22T00:08:31.078Z,981.08
2022-08-22T00:09:31.049Z,981.12
2022-08-22T00:10:31.058Z,981.06
2022-08-22T00:11:31.872Z,981.06
2022-08-22T00:12:31.025Z,981.04
2022-08-22T00:13:31.053Z,981.10
2022-08-22T00:14:31.008Z,981.01
2022-08-22T00:15:42.625Z,981.06
2022-08-22T00:16:31.987Z,981.03
2022-08-22T00:17:30.976Z,981.07
2022-08-22T00:18:30.993Z,981.08
2022-08-22T00:19:30.958Z,981.03
2022-08-22T00:20:30.944Z,981.06
2022-08-22T00:21:30.936Z,981.02
2022-08-22T00:22:30.926Z,981.07
2022-08-22T00:23:30.919Z,981.05
2022-08-22T00:24:30.926Z,981.04
2022-08-22T00:25:30.899Z,981.05
2022-08-22T00:26:30.891Z,981.06
2022-08-22T00:27:30.878Z,981.07
2022-08-22T00:28:30.880Z,981.12
2022-08-22T00:29:30.872Z,981.09
2022-08-22T00:30:30.850Z,981.09
2022-08-22T00:31:30.842Z,981.08
2022-08-22T00:32:30.831Z,981.09
2022-08-22T00:33:30.816Z,981.07
2022-08-22T00:34:30.840Z,981.04
2022-08-22T00:35:30.803Z,981.10
2022-08-22T00:36:30.806Z,981.18
2022-08-22T00:37:30.785Z,981.16
2022-08-22T00:38:30.770Z,981.17
2022-08-22T00:39:30.792Z,981.07
2022-08-22T00:40:30.751Z,981.20
2022-08-22T00:41:30.738Z,981.13
2022-08-22T00:42:32.112Z,981.16
2022-08-22T00:43:30.709Z,981.05
2022-08-22T00:44:30.711Z,981.14
2022-08-22T00:45:30.715Z,981.12
2022-08-22T00:46:30.695Z,981.05
2022-08-22T00:47:30.686Z,981.04
2022-08-22T00:48:30.672Z,981.09
2022-08-22T00:49:30.705Z,981.09
2022-08-22T00:50:30.668Z,981.11
2022-08-22T00:51:30.641Z,981.09
2022-08-22T00:52:30.635Z,981.11
2022-08-22T00:53:30.673Z,981.06
2022-08-22T00:54:30.614Z,981.08
2022-08-22T00:55:33.891Z,981.05
2022-08-22T00:56:30.591Z,981.06
2022-08-22T00:57:30.589Z,981.12
2022-08-22T00:58:30.574Z,981.09
2022-08-22T00:59:30.563Z,981.09
2022-08-22T01:00:30.581Z,981.12
2022-08-22T01:01:30.562Z,981.13
2022-08-22T01:02:30.532Z,981.10
2022-08-22T01:03:30.528Z,981.07
2022-08-22T01:04:30.517Z,981.13
2022-08-22T01:05:30.502Z,981.11
2022-08-22T01:06:30.511Z,981.09
2022-08-22T01:07:37.857Z,981.12
2022-08-22T01:08:31.472Z,981.15
2022-08-22T01:09:30.467Z,981.17
2022-08-22T01:10:30.453Z,981.15
2022-08-22T01:11:30.461Z,981.12
2022-08-22T01:12:30.438Z,981.13
2022-08-22T01:13:30.431Z,981.16
2022-08-22T01:14:34.585Z,981.12
2022-08-22T01:15:30.406Z,981.13
2022-08-22T01:16:30.425Z,981.11
2022-08-22T01:17:30.386Z,981.12
2022-08-22T01:18:30.376Z,981.13
2022-08-22T01:19:30.366Z,981.10
2022-08-22T01:20:30.356Z,981.12
2022-08-22T01:21:30.379Z,981.11
2022-08-22T01:22:30.348Z,981.05
2022-08-22T01:23:30.331Z,981.07
2022-08-22T01:24:30.320Z,981.12
2022-08-22T01:25:30.312Z,981.13
2022-08-22T01:26:30.298Z,981.08
2022-08-22T01:27:30.311Z,981.11
2022-08-22T01:28:30.280Z,981.09
2022-08-22T01:29:30.273Z,981.04
2022-08-22T01:30:30.260Z,981.09
2022-08-22T01:31:30.252Z,981.07
2022-08-22T01:32:30.261Z,981.10
2022-08-22T01:33:30.232Z,981.07
2022-08-22T01:34:30.219Z,981.04
2022-08-22T01:35:30.207Z,981.04
2022-08-22T01:36:30.204Z,981.05
2022-08-22T01:37:30.227Z,981.05
2022-08-22T01:38:30.183Z,981.01
2022-08-22T01:39:30.173Z,981.01
2022-08-22T01:40:30.196Z,981.03
2022-08-22T01:41:31.154Z,981.04
2022-08-22T01:42:30.186Z,981.01
2022-08-22T01:43:58.975Z,981.00
2022-08-22T01:44:31.127Z,981.07
2022-08-22T01:45:30.118Z,981.04
2022-08-22T01:46:30.102Z,981.03
2022-08-22T01:47:30.921Z,980.99
2022-08-22T01:48:31.106Z,980.97
2022-08-22T01:49:30.077Z,981.03
2022-08-22T01:50:30.067Z,981.06
2022-08-22T01:51:30.056Z,981.01
2022-08-22T01:52:30.044Z,981.00
2022-08-22T01:53:30.050Z,981.01
2022-08-22T01:54:30.026Z,981.03
2022-08-22T01:55:30.018Z,981.05
2022-08-22T01:56:30.005Z,981.08
2022-08-22T01:57:30.000Z,981.05
2022-08-22T01:58:30.063Z,981.05
2022-08-22T01:59:34.109Z,981.07
2022-08-22T02:00:35.513Z,981.09
2022-08-22T02:01:30.959Z,981.04
2022-08-22T02:03:01.845Z,981.04
2022-08-22T02:03:29.970Z,981.02
2022-08-22T02:04:29.927Z,981.00
2022-08-22T02:05:29.907Z,981.00
2022-08-22T02:06:30.912Z,981.03
2022-08-22T02:07:32.135Z,981.03
2022-08-22T02:08:29.883Z,981.05
2022-08-22T02:09:30.894Z,981.02
2022-08-22T02:10:29.871Z,981.06
2022-08-22T02:11:29.865Z,981.05
2022-08-22T02:12:29.852Z,981.10
2022-08-22T02:13:29.840Z,981.10
2022-08-22T02:14:29.864Z,981.07
2022-08-22T02:15:29.826Z,981.05
2022-08-22T02:16:29.813Z,981.07
2022-08-22T02:17:29.801Z,981.09
2022-08-22T02:18:29.797Z,981.08
2022-08-22T02:19:29.815Z,981.03
2022-08-22T02:20:29.778Z,981.04
2022-08-22T02:21:29.768Z,981.07
2022-08-22T02:22:29.759Z,980.97
2022-08-22T02:23:29.747Z,980.99
2022-08-22T02:24:29.738Z,980.97
2022-08-22T02:25:29.748Z,980.95
2022-08-22T02:26:29.719Z,980.97
2022-08-22T02:27:31.365Z,980.93
2022-08-22T02:28:29.699Z,980.92
2022-08-22T02:29:29.688Z,980.93
2022-08-22T02:30:29.709Z,980.96
2022-08-22T02:31:29.665Z,980.94
2022-08-22T02:32:29.664Z,980.97
2022-08-22T02:33:29.656Z,980.97
2022-08-22T02:34:29.645Z,980.95
2022-08-22T02:35:29.676Z,980.95
2022-08-22T02:36:29.625Z,980.99
2022-08-22T02:37:29.613Z,980.94
2022-08-22T02:38:29.604Z,981.00
2022-08-22T02:39:29.598Z,980.95
2022-08-22T02:40:29.583Z,980.96
2022-08-22T02:41:30.928Z,980.93
2022-08-22T02:42:29.566Z,980.91
2022-08-22T02:43:29.557Z,980.93
2022-08-22T02:44:29.550Z,980.87
2022-08-22T02:45:29.540Z,980.90
2022-08-22T02:46:29.571Z,980.88
2022-08-22T02:47:29.518Z,980.92
2022-08-22T02:48:29.508Z,980.88
2022-08-22T02:49:29.502Z,980.91
2022-08-22T02:50:29.488Z,980.93
2022-08-22T02:51:29.536Z,980.93
2022-08-22T02:52:29.495Z,980.88
2022-08-22T02:53:29.459Z,980.96
2022-08-22T02:54:29.448Z,980.94
2022-08-22T02:55:29.438Z,980.92
2022-08-22T02:56:29.428Z,980.87
2022-08-22T02:57:29.435Z,980.87
2022-08-22T02:58:29.407Z,980.93
2022-08-22T02:59:29.395Z,980.96
2022-08-22T03:00:32.725Z,980.90
2022-08-22T03:01:29.380Z,980.93
2022-08-22T03:02:29.384Z,980.97
2022-08-22T03:03:29.366Z,980.97
2022-08-22T03:04:29.352Z,980.96
2022-08-22T03:05:29.344Z,980.96
2022-08-22T03:06:29.337Z,981.01
2022-08-22T03:07:29.340Z,980.94
2022-08-22T03:08:29.386Z,980.93
2022-08-22T03:09:29.306Z,980.91
2022-08-22T03:10:29.293Z,980.95
2022-08-22T03:11:29.289Z,980.95
2022-08-22T03:12:29.321Z,980.87
2022-08-22T03:13:29.269Z,980.88
2022-08-22T03:14:29.262Z,980.89
2022-08-22T03:15:29.249Z,980.90
2022-08-22T03:16:29.241Z,980.89
2022-08-22T03:17:29.265Z,980.89
2022-08-22T03:18:29.223Z,980.87
2022-08-22T03:19:29.207Z,980.89
2022-08-22T03:20:29.227Z,980.89
2022-08-22T03:21:29.192Z,980.88
2022-08-22T03:22:29.180Z,980.87
2022-08-22T03:23:29.194Z,980.83
2022-08-22T03:24:29.162Z,980.82
2022-08-22T03:25:29.156Z,980.88
2022-08-22T03:26:29.146Z,980.84
2022-08-22T03:27:32.410Z,980.84
2022-08-22T03:28:29.142Z,980.91
2022-08-22T03:29:29.117Z,980.83
2022-08-22T03:30:29.103Z,980.86
2022-08-22T03:31:29.095Z,980.76
2022-08-22T03:32:29.085Z,980.88
2022-08-22T03:33:29.091Z,980.82
2022-08-22T03:34:29.069Z,980.82
2022-08-22T03:35:29.056Z,980.80
2022-08-22T03:36:29.049Z,980.78
2022-08-22T03:37:29.038Z,980.77
2022-08-22T03:38:29.043Z,980.79
2022-08-22T03:39:29.022Z,980.75
2022-08-22T03:40:31.451Z,980.77
2022-08-22T03:41:28.999Z,980.79
2022-08-22T03:42:28.993Z,980.78
2022-08-22T03:43:29.001Z,980.80
2022-08-22T03:44:28.968Z,980.81
2022-08-22T03:45:28.950Z,980.78
2022-08-22T03:46:29.948Z,980.86
2022-08-22T03:47:28.936Z,980.85
2022-08-22T03:48:28.948Z,980.84
2022-08-22T03:49:28.921Z,980.85
2022-08-22T03:50:28.910Z,980.86
2022-08-22T03:51:28.894Z,980.85
2022-08-22T03:52:29.891Z,980.87
2022-08-22T03:53:28.929Z,980.90
2022-08-22T03:54:30.491Z,980.85
2022-08-22T03:55:28.863Z,980.84
2022-08-22T03:56:28.883Z,980.91
2022-08-22T03:57:28.835Z,980.88
2022-08-22T03:58:28.856Z,980.86
2022-08-22T03:59:28.817Z,980.94
2022-08-22T04:00:28.875Z,980.86
2022-08-22T04:01:28.800Z,980.85
2022-08-22T04:02:43.652Z,980.90
2022-08-22T04:03:29.820Z,980.86
2022-08-22T04:04:28.768Z,980.90
2022-08-22T04:05:28.756Z,980.91
2022-08-22T04:06:28.747Z,980.91
2022-08-22T04:07:32.400Z,980.80
2022-08-22T04:08:28.729Z,980.92
2022-08-22T04:09:29.183Z,980.89
2022-08-22T04:10:28.711Z,980.87
2022-08-22T04:11:28.697Z,981.01
2022-08-22T04:12:28.712Z,980.96
2022-08-22T04:13:28.680Z,980.94
2022-08-22T04:14:28.684Z,980.98
2022-08-22T04:15:28.658Z,981.05
2022-08-22T04:16:28.654Z,981.01
2022-08-22T04:17:28.637Z,981.02
2022-08-22T04:18:28.628Z,980.98
2022-08-22T04:19:28.646Z,980.98
2022-08-22T04:20:28.608Z,980.93
2022-08-22T04:21:28.597Z,980.99
2022-08-22T04:22:28.587Z,980.86
2022-08-22T04:23:28.679Z,980.91
2022-08-22T04:24:28.609Z,981.00
2022-08-22T04:25:28.556Z,980.92
2022-08-22T04:26:28.556Z,981.00
2022-08-22T04:27:28.537Z,981.01
2022-08-22T04:28:28.528Z,981.01
2022-08-22T04:29:28.517Z,981.06
2022-08-22T04:30:28.520Z,981.10
2022-08-22T04:31:28.492Z,981.09
2022-08-22T04:32:28.485Z,981.12
2022-08-22T04:33:28.475Z,981.10
2022-08-22T04:34:28.464Z,981.10
2022-08-22T04:35:28.469Z,981.11
2022-08-22T04:36:28.447Z,981.13
2022-08-22T04:37:28.438Z,981.15
2022-08-22T04:38:28.426Z,981.17
2022-08-22T04:39:28.420Z,981.17
2022-08-22T04:40:28.435Z,981.19
2022-08-22T04:41:28.398Z,981.21
2022-08-22T04:42:32.806Z,981.29
2022-08-22T04:43:29.382Z,981.22
2022-08-22T04:44:28.366Z,981.25
2022-08-22T04:45:28.394Z,981.28
2022-08-22T04:46:36.653Z,981.21
2022-08-22T04:47:29.342Z,981.29
2022-08-22T04:48:28.328Z,981.23
2022-08-22T04:49:28.318Z,981.33
2022-08-22T04:50:28.310Z,981.28
2022-08-22T04:51:28.315Z,981.28
2022-08-22T04:52:29.556Z,981.28
2022-08-22T04:53:28.281Z,981.33
2022-08-22T04:54:28.268Z,981.35
2022-08-22T04:55:28.256Z,981.37
2022-08-22T04:56:28.263Z,981.33
2022-08-22T04:57:28.244Z,981.33
2022-08-22T04:58:28.225Z,981.34
2022-08-22T04:59:28.220Z,981.34
2022-08-22T05:00:28.224Z,981.41
2022-08-22T05:01:28.255Z,981.40
2022-08-22T05:02:28.191Z,981.39
2022-08-22T05:03:28.172Z,981.38
2022-08-22T05:04:29.170Z,981.37
2022-08-22T05:05:28.185Z,981.38
2022-08-22T05:06:28.179Z,981.42
2022-08-22T05:07:28.138Z,981.40
2022-08-22T05:08:29.130Z,981.38
2022-08-22T05:09:28.120Z,981.37
2022-08-22T05:10:28.113Z,981.40
2022-08-22T05:11:28.129Z,981.35
2022-08-22T05:12:30.068Z,981.34
2022-08-22T05:13:28.082Z,981.33
2022-08-22T05:14:28.072Z,981.37
2022-08-22T05:15:28.081Z,981.33
2022-08-22T05:16:28.052Z,981.33
2022-08-22T05:17:28.056Z,981.34
2022-08-22T05:18:29.626Z,981.25
2022-08-22T05:19:31.913Z,981.34
2022-08-22T05:20:29.018Z,981.34
2022-08-22T05:21:28.004Z,981.35
2022-08-22T05:22:28.011Z,981.33
2022-08-22T05:23:27.983Z,981.33
2022-08-22T05:24:28.278Z,981.36
2022-08-22T05:25:27.961Z,981.33
2022-08-22T05:26:27.953Z,981.31
2022-08-22T05:27:27.956Z,981.36
2022-08-22T05:28:27.934Z,981.35
2022-08-22T05:29:27.922Z,981.38
2022-08-22T05:30:27.913Z,981.41
2022-08-22T05:31:27.898Z,981.36
2022-08-22T05:32:27.916Z,981.40
2022-08-22T05:33:27.881Z,981.36
2022-08-22T05:34:27.873Z,981.40
2022-08-22T05:35:27.859Z,981.43
2022-08-22T05:36:27.877Z,981.36
2022-08-22T05:37:27.879Z,981.38
2022-08-22T05:38:27.835Z,981.36
2022-08-22T05:39:28.024Z,981.39
2022-08-22T05:40:27.816Z,981.36
2022-08-22T05:41:27.799Z,981.39
2022-08-22T05:42:27.821Z,981.35
2022-08-22T05:43:27.780Z,981.32
2022-08-22T05:44:27.774Z,981.35
2022-08-22T05:45:27.761Z,981.31
2022-08-22T05:46:27.756Z,981.38
2022-08-22T05:47:27.746Z,981.37
2022-08-22T05:48:27.753Z,981.43
2022-08-22T05:49:27.726Z,981.42
2022-08-22T05:50:27.713Z,981.44
2022-08-22T05:51:27.704Z,981.47
2022-08-22T05:52:27.697Z,981.42
2022-08-22T05:53:27.705Z,981.45
2022-08-22T05:54:34.493Z,981.45
2022-08-22T05:55:28.666Z,981.45
2022-08-22T05:56:27.656Z,981.48
2022-08-22T05:57:27.648Z,981.44
2022-08-22T05:58:27.649Z,981.36
2022-08-22T05:59:27.625Z,981.40
2022-08-22T06:00:27.614Z,981.36
2022-08-22T06:01:27.642Z,981.42
2022-08-22T06:02:27.616Z,981.40
2022-08-22T06:03:27.609Z,981.45
2022-08-22T06:04:27.581Z,981.40
2022-08-22T06:05:27.565Z,981.44
2022-08-22T06:06:27.559Z,981.46
2022-08-22T06:07:27.553Z,981.44
2022-08-22T06:08:27.569Z,981.47
2022-08-22T06:09:34.936Z,981.43
2022-08-22T06:10:28.517Z,981.48
2022-08-22T06:11:33.668Z,981.47
2022-08-22T06:12:28.526Z,981.45
2022-08-22T06:13:27.506Z,981.48
2022-08-22T06:14:27.483Z,981.41
2022-08-22T06:15:27.472Z,981.44
2022-08-22T06:16:27.464Z,981.43
2022-08-22T06:17:27.455Z,981.43
2022-08-22T06:18:27.461Z,981.44
2022-08-22T06:19:27.437Z,981.44
2022-08-22T06:20:28.787Z,981.36
2022-08-22T06:21:27.473Z,981.43
2022-08-22T06:22:27.582Z,981.39
2022-08-22T06:23:27.440Z,981.44
2022-08-22T06:24:27.397Z,981.44
2022-08-22T06:25:27.385Z,981.35
2022-08-22T06:26:27.369Z,981.43
2022-08-22T06:27:27.363Z,981.41
2022-08-22T06:28:27.383Z,981.42
2022-08-22T06:29:27.346Z,981.42
2022-08-22T06:30:27.431Z,981.46
2022-08-22T06:31:27.323Z,981.47
2022-08-22T06:32:31.546Z,981.46
2022-08-22T06:33:28.335Z,981.42
2022-08-22T06:34:27.297Z,981.36
2022-08-22T06:35:27.287Z,981.48
2022-08-22T06:36:27.276Z,981.37
2022-08-22T06:37:27.266Z,981.36
2022-08-22T06:38:27.257Z,981.31
2022-08-22T06:39:27.264Z,981.32
2022-08-22T06:40:27.311Z,981.39
2022-08-22T06:41:27.227Z,981.41
2022-08-22T06:42:27.214Z,981.37
2022-08-22T06:43:27.211Z,981.40
2022-08-22T06:44:27.210Z,981.36
2022-08-22T06:45:27.188Z,981.42
2022-08-22T06:46:27.188Z,981.37
2022-08-22T06:47:27.170Z,981.40
2022-08-22T06:48:27.155Z,981.39
2022-08-22T06:49:27.167Z,981.39
2022-08-22T06:50:27.145Z,981.43
2022-08-22T06:51:27.130Z,981.34
2022-08-22T06:52:27.126Z,981.43
2022-08-22T06:53:27.112Z,981.42
2022-08-22T06:54:29.440Z,981.40
2022-08-22T06:55:27.092Z,981.41
2022-08-22T06:56:27.099Z,981.42
2022-08-22T06:57:27.071Z,981.40
2022-08-22T06:58:27.063Z,981.47
2022-08-22T06:59:27.078Z,981.48
2022-08-22T07:00:27.051Z,981.47
2022-08-22T07:01:27.134Z,981.46
2022-08-22T07:02:27.021Z,981.44
2022-08-22T07:03:27.012Z,981.41
2022-08-22T07:04:27.018Z,981.51
2022-08-22T07:05:27.006Z,981.45
2022-08-22T07:06:26.982Z,981.47
2022-08-22T07:07:26.972Z,981.44
2022-08-22T07:08:26.962Z,981.48
2022-08-22T07:09:26.967Z,981.53
2022-08-22T07:10:26.957Z,981.43
2022-08-22T07:11:26.931Z,981.49
2022-08-22T07:12:26.918Z,981.47
2022-08-22T07:13:26.911Z,981.48
2022-08-22T07:14:26.941Z,981.45
2022-08-22T07:15:26.893Z,981.41
2022-08-22T07:16:26.888Z,981.48
2022-08-22T07:17:26.873Z,981.41
2022-08-22T07:18:26.860Z,981.43
2022-08-22T07:19:26.886Z,981.44
2022-08-22T07:20:26.973Z,981.43
2022-08-22T07:21:26.836Z,981.46
2022-08-22T07:22:26.824Z,981.45
2022-08-22T07:23:26.811Z,981.42
2022-08-22T07:24:26.821Z,981.43
2022-08-22T07:25:26.813Z,981.42
2022-08-22T07:26:26.786Z,981.40
2022-08-22T07:27:26.780Z,981.49
2022-08-22T07:28:36.518Z,981.48
2022-08-22T07:29:27.768Z,981.53
2022-08-22T07:30:27.835Z,981.55
2022-08-22T07:31:26.741Z,981.52
2022-08-22T07:32:26.730Z,981.52
2022-08-22T07:33:27.281Z,981.53
2022-08-22T07:34:26.709Z,981.53
2022-08-22T07:35:26.715Z,981.48
2022-08-22T07:36:31.436Z,981.59
2022-08-22T07:37:28.682Z,981.56
2022-08-22T07:38:26.670Z,981.56
2022-08-22T07:39:26.663Z,981.60
2022-08-22T07:40:26.760Z,981.65
2022-08-22T07:41:26.639Z,981.64
2022-08-22T07:42:30.106Z,981.69
2022-08-22T07:43:27.619Z,981.68
2022-08-22T07:44:26.612Z,981.63
2022-08-22T07:45:26.619Z,981.60
2022-08-22T07:46:26.592Z,981.60
2022-08-22T07:47:26.813Z,981.59
2022-08-22T07:48:26.647Z,981.56
2022-08-22T07:49:26.571Z,981.56
2022-08-22T07:50:26.586Z,981.56
2022-08-22T07:51:26.549Z,981.56
2022-08-22T07:52:26.534Z,981.63
2022-08-22T07:53:26.531Z,981.55
2022-08-22T07:54:27.329Z,981.57
2022-08-22T07:55:26.544Z,981.63
2022-08-22T07:56:26.509Z,981.61
2022-08-22T07:57:26.488Z,981.61
2022-08-22T07:58:26.478Z,981.65
2022-08-22T07:59:26.466Z,981.62
2022-08-22T08:00:26.463Z,981.64
2022-08-22T08:01:26.494Z,981.68
2022-08-22T08:02:58.336Z,981.65
2022-08-22T08:03:26.439Z,981.66
2022-08-22T08:04:26.425Z,981.65
2022-08-22T08:05:26.416Z,981.68
2022-08-22T08:06:26.424Z,981.59
2022-08-22T08:07:26.397Z,981.62
2022-08-22T08:08:26.385Z,981.61
2022-08-22T08:09:26.373Z,981.55
2022-08-22T08:10:26.369Z,981.53
2022-08-22T08:11:26.374Z,981.54
2022-08-22T08:12:26.349Z,981.59
2022-08-22T08:13:26.339Z,981.54
2022-08-22T08:14:26.329Z,981.58
2022-08-22T08:15:26.942Z,981.55
2022-08-22T08:16:26.357Z,981.54
2022-08-22T08:17:30.136Z,981.52
2022-08-22T08:18:28.293Z,981.50
2022-08-22T08:19:26.279Z,981.49
2022-08-22T08:20:26.270Z,981.52
2022-08-22T08:21:26.288Z,981.50
2022-08-22T08:22:26.251Z,981.48
2022-08-22T08:23:26.241Z,981.50
2022-08-22T08:24:26.234Z,981.49
2022-08-22T08:25:26.219Z,981.50
2022-08-22T08:26:26.209Z,981.50
2022-08-22T08:27:26.217Z,981.47
2022-08-22T08:28:26.195Z,981.50
2022-08-22T08:29:26.181Z,981.51
2022-08-22T08:30:26.181Z,981.46
2022-08-22T08:31:26.167Z,981.49
2022-08-22T08:32:26.169Z,981.48
2022-08-22T08:33:26.891Z,981.49
2022-08-22T08:34:27.119Z,981.51
2022-08-22T08:35:27.125Z,981.52
2022-08-22T08:36:26.113Z,981.50
2022-08-22T08:37:26.136Z,981.55
2022-08-22T08:38:26.099Z,981.60
2022-08-22T08:39:26.089Z,981.57
2022-08-22T08:40:27.075Z,981.53
2022-08-22T08:41:26.067Z,981.56
2022-08-22T08:42:26.087Z,981.56
2022-08-22T08:43:26.043Z,981.58
2022-08-22T08:44:26.044Z,981.63
2022-08-22T08:45:26.031Z,981.56
2022-08-22T08:46:26.256Z,981.63
2022-08-22T08:47:26.008Z,981.64
2022-08-22T08:48:26.033Z,981.62
2022-08-22T08:49:25.988Z,981.66
2022-08-22T08:50:25.981Z,981.66
2022-08-22T08:51:25.964Z,981.61
2022-08-22T08:52:25.968Z,981.63
2022-08-22T08:53:25.967Z,981.60
2022-08-22T08:54:25.930Z,981.59
2022-08-22T08:55:26.929Z,981.64
2022-08-22T08:56:25.921Z,981.61
2022-08-22T08:57:25.908Z,981.62
2022-08-22T08:58:25.929Z,981.58
2022-08-22T08:59:25.890Z,981.56
2022-08-22T09:01:27.547Z,981.64
2022-08-22T09:02:25.868Z,981.58
2022-08-22T09:03:30.939Z,981.63
2022-08-22T09:04:26.849Z,981.61
2022-08-22T09:05:25.842Z,981.58
2022-08-22T09:06:25.831Z,981.59
2022-08-22T09:07:25.817Z,981.61
2022-08-22T09:08:27.611Z,981.69
2022-08-22T09:09:25.812Z,981.66
2022-08-22T09:10:27.365Z,981.63
2022-08-22T09:12:26.766Z,981.60
2022-08-22T09:13:25.749Z,981.55
2022-08-22T09:14:26.320Z,981.60
2022-08-22T09:15:25.739Z,981.60
2022-08-22T09:16:25.730Z,981.58
2022-08-22T09:17:25.719Z,981.66
2022-08-22T09:18:25.711Z,981.64
2022-08-22T09:19:25.717Z,981.60
2022-08-22T09:20:25.693Z,981.61
2022-08-22T09:21:30.723Z,981.54
2022-08-22T09:22:26.675Z,981.53
2022-08-22T09:23:26.661Z,981.53
2022-08-22T09:24:25.664Z,981.54
2022-08-22T09:25:25.646Z,981.52
2022-08-22T09:26:25.634Z,981.49
2022-08-22T09:27:25.620Z,981.46
2022-08-22T09:28:28.360Z,981.46
2022-08-22T09:29:25.617Z,981.44
2022-08-22T09:30:28.880Z,981.47
2022-08-22T09:31:33.222Z,981.44
2022-08-22T09:32:26.590Z,981.44
2022-08-22T09:33:28.164Z,981.40
2022-08-22T09:34:25.630Z,981.40
2022-08-22T09:35:25.543Z,981.37
2022-08-22T09:36:25.534Z,981.39
2022-08-22T09:37:25.535Z,981.34
2022-08-22T09:38:25.515Z,981.35
2022-08-22T09:39:25.566Z,981.34
2022-08-22T09:41:25.491Z,981.33
2022-08-22T09:42:25.480Z,981.33
2022-08-22T09:43:25.470Z,981.33
2022-08-22T09:44:25.468Z,981.29
2022-08-22T09:45:25.476Z,981.32
2022-08-22T09:46:32.009Z,981.24
2022-08-22T09:47:26.425Z,981.18
2022-08-22T09:48:26.594Z,981.21
2022-08-22T09:49:25.410Z,981.27
2022-08-22T09:50:25.427Z,981.23
2022-08-22T09:51:33.078Z,981.24
2022-08-22T09:52:33.224Z,981.13
2022-08-22T09:53:26.372Z,981.24
2022-08-22T09:54:31.691Z,981.16
2022-08-22T09:55:30.584Z,981.15
2022-08-22T09:56:26.346Z,981.13
2022-08-22T09:57:25.338Z,981.23
2022-08-22T09:58:25.328Z,981.25
2022-08-22T09:59:25.315Z,981.21
2022-08-22T10:00:25.764Z,981.20
2022-08-22T10:01:25.426Z,981.16
2022-08-22T10:02:26.287Z,981.21
2022-08-22T10:03:25.280Z,981.15
2022-08-22T10:04:25.271Z,981.15
2022-08-22T10:05:40.912Z,981.15
2022-08-22T10:06:26.306Z,981.11
2022-08-22T10:07:25.242Z,981.07
2022-08-22T10:08:26.510Z,981.08
2022-08-22T10:09:31.493Z,981.09
2022-08-22T10:10:27.211Z,981.11
2022-08-22T10:11:25.202Z,981.12
2022-08-22T10:12:25.221Z,981.11
2022-08-22T10:13:25.181Z,981.09
2022-08-22T10:14:25.174Z,981.16
2022-08-22T10:15:25.163Z,981.05
2022-08-22T10:16:25.182Z,981.09
2022-08-22T10:17:25.189Z,981.04
2022-08-22T10:18:26.189Z,981.07
2022-08-22T10:19:25.128Z,981.02
2022-08-22T10:20:25.113Z,981.05
2022-08-22T10:21:25.103Z,981.04
2022-08-22T10:22:29.942Z,981.01
2022-08-22T10:23:26.109Z,981.03
2022-08-22T10:24:25.702Z,981.00
2022-08-22T10:25:25.109Z,981.00
2022-08-22T10:26:25.642Z,980.93
2022-08-22T10:27:25.043Z,980.94
2022-08-22T10:28:25.080Z,980.95
2022-08-22T10:29:25.023Z,980.89
2022-08-22T10:30:25.015Z,980.82
2022-08-22T10:31:25.001Z,980.82
2022-08-22T10:32:26.948Z,980.84
2022-08-22T10:33:25.021Z,980.88
2022-08-22T10:34:24.980Z,980.87
2022-08-22T10:35:25.585Z,980.86
2022-08-22T10:36:26.270Z,980.85
2022-08-22T10:37:24.954Z,980.77
2022-08-22T10:38:25.070Z,980.76
2022-08-22T10:39:24.953Z,980.79
2022-08-22T10:40:24.962Z,980.75
2022-08-22T10:41:24.915Z,980.73
2022-08-22T10:42:24.909Z,980.75
2022-08-22T10:43:29.161Z,980.72
2022-08-22T10:44:24.914Z,980.74
2022-08-22T10:45:36.177Z,980.73
2022-08-22T10:46:25.870Z,980.76
2022-08-22T10:47:24.861Z,980.66
2022-08-22T10:48:24.942Z,980.67
2022-08-22T10:49:28.301Z,980.68
2022-08-22T10:50:24.826Z,980.62
2022-08-22T10:51:25.824Z,980.61
2022-08-22T10:52:24.809Z,980.61
2022-08-22T10:53:29.466Z,980.57
2022-08-22T10:54:25.835Z,980.50
2022-08-22T10:55:24.785Z,980.56
2022-08-22T10:56:24.778Z,980.55
2022-08-22T10:57:24.770Z,980.50
2022-08-22T10:58:24.796Z,980.54
2022-08-22T10:59:24.765Z,980.46
2022-08-22T11:00:25.612Z,980.52
2022-08-22T11:01:38.462Z,980.50
2022-08-22T11:02:25.827Z,980.49
2022-08-22T11:03:24.999Z,980.53
2022-08-22T11:04:28.276Z,980.49
2022-08-22T11:05:24.709Z,980.52
2022-08-22T11:06:24.679Z,980.56
2022-08-22T11:07:25.672Z,980.49
2022-08-22T11:08:24.669Z,980.48
2022-08-22T11:09:24.674Z,980.52
2022-08-22T11:10:24.669Z,980.43
2022-08-22T11:11:24.636Z,980.48
2022-08-22T11:12:28.211Z,980.50
2022-08-22T11:13:25.619Z,980.50
2022-08-22T11:14:24.623Z,980.53
2022-08-22T11:15:34.510Z,980.50
2022-08-22T11:16:25.595Z,980.48
2022-08-22T11:17:30.252Z,980.49
2022-08-22T11:18:25.572Z,980.43
2022-08-22T11:19:24.644Z,980.47
2022-08-22T11:20:24.578Z,980.40
2022-08-22T11:21:24.544Z,980.37
2022-08-22T11:22:24.536Z,980.40
2022-08-22T11:23:24.524Z,980.33
2022-08-22T11:24:35.480Z,980.38
2022-08-22T11:25:29.227Z,980.42
2022-08-22T11:26:30.108Z,980.39
2022-08-22T11:27:34.523Z,980.39
2022-08-22T11:28:25.507Z,980.36
2022-08-22T11:29:24.488Z,980.35
2022-08-22T11:30:25.846Z,980.43
2022-08-22T11:31:24.533Z,980.35
2022-08-22T11:32:24.445Z,980.35
2022-08-22T11:33:37.429Z,980.37
2022-08-22T11:34:25.643Z,980.42
2022-08-22T11:35:24.416Z,980.37
2022-08-22T11:36:26.331Z,980.35
2022-08-22T11:37:42.839Z,980.41
2022-08-22T11:38:32.658Z,980.41
2022-08-22T11:39:26.411Z,980.35
2022-08-22T11:40:24.432Z,980.36
2022-08-22T11:41:24.365Z,980.31
2022-08-22T11:42:24.352Z,980.37
2022-08-22T11:43:25.351Z,980.41
2022-08-22T11:44:25.501Z,980.38
2022-08-22T11:45:24.368Z,980.32
2022-08-22T11:46:24.325Z,980.37
2022-08-22T11:47:27.297Z,980.34
2022-08-22T11:48:24.305Z,980.39
2022-08-22T11:49:25.566Z,980.34
2022-08-22T11:50:24.311Z,980.34
2022-08-22T11:51:24.807Z,980.32
2022-08-22T11:52:24.273Z,980.31
2022-08-22T11:53:24.272Z,980.29
2022-08-22T11:54:30.863Z,980.30
2022-08-22T11:55:29.610Z,980.27
2022-08-22T11:56:25.233Z,980.22
2022-08-22T11:57:24.226Z,980.17
2022-08-22T11:58:28.729Z,980.20
2022-08-22T11:59:25.217Z,980.24
2022-08-22T12:00:24.199Z,980.19
2022-08-22T12:01:24.224Z,980.19
2022-08-22T12:02:24.199Z,980.25
2022-08-22T12:03:24.171Z,980.23
2022-08-22T12:04:24.162Z,980.32
2022-08-22T12:05:24.616Z,980.25
2022-08-22T12:06:24.194Z,980.29
2022-08-22T12:07:24.142Z,980.25
2022-08-22T12:08:24.121Z,980.17
2022-08-22T12:09:24.118Z,980.29
2022-08-22T12:10:24.109Z,980.15
2022-08-22T12:11:24.162Z,980.21
2022-08-22T12:12:24.090Z,980.11
2022-08-22T12:13:34.133Z,980.25
2022-08-22T12:14:27.037Z,980.19
2022-08-22T12:15:24.515Z,980.17
2022-08-22T12:16:24.057Z,980.23
2022-08-22T12:17:51.103Z,980.23
2022-08-22T12:18:25.149Z,980.24
2022-08-22T12:19:24.023Z,980.25
2022-08-22T12:20:24.009Z,980.19
2022-08-22T12:21:24.003Z,980.18
2022-08-22T12:22:24.010Z,980.21
2022-08-22T12:23:23.981Z,980.19
2022-08-22T12:24:24.994Z,980.22
2022-08-22T12:25:23.971Z,980.15